Time;durP1;ratioP1;P1;durP2;ratioP2;P2;SDS_P1;SDS_P2;PMS_P1;PMS_P2;Temp;Humidity;BMP_temperature;BMP_pressure;BME280_temperature;BME280_humidity;BME280_pressure;Samples;Min_cycle;Max_cycle;Signal;HPM_P1;HPM_P2
2021/04/19 00:00:01;;;;;;;22.88;13.05;;;;;;;11.47;57.47;102340.38;5054828;28;20018;-84
2021/04/19 00:02:28;;;;;;;21.08;12.80;;;;;;;11.38;57.43;102338.63;5054846;28;20032;-84
2021/04/19 00:04:54;;;;;;;24.20;14.63;;;;;;;11.37;57.49;102335.97;5055554;28;20072;-84
2021/04/19 00:07:21;;;;;;;24.48;13.18;;;;;;;11.33;57.79;102335.94;5054736;28;20044;-83
2021/04/19 00:09:47;;;;;;;27.88;15.25;;;;;;;11.26;57.93;102336.81;5051466;28;20075;-83
2021/04/19 00:12:14;;;;;;;24.00;13.05;;;;;;;11.28;57.72;102332.41;5046725;28;20397;-84
2021/04/19 00:14:40;;;;;;;23.10;14.35;;;;;;;11.24;57.80;102328.00;5054568;28;20029;-84
2021/04/19 00:17:07;;;;;;;25.10;14.73;;;;;;;11.24;57.85;102330.66;5054729;28;20452;-84
2021/04/19 00:19:33;;;;;;;28.30;15.85;;;;;;;11.16;58.04;102321.78;5054450;28;20025;-84
2021/04/19 00:22:00;;;;;;;27.48;15.43;;;;;;;11.16;58.01;102313.81;5054798;28;20033;-84
2021/04/19 00:24:26;;;;;;;31.33;16.02;;;;;;;11.17;58.06;102323.56;5054190;28;20076;-84
2021/04/19 00:26:53;;;;;;;30.23;16.38;;;;;;;11.10;58.33;102317.38;5054468;28;20392;-83
2021/04/19 00:29:19;;;;;;;29.27;16.30;;;;;;;11.09;58.42;102318.25;5054585;28;20029;-84
2021/04/19 00:31:46;;;;;;;28.38;15.60;;;;;;;11.11;58.31;102311.16;5054296;28;20044;-83
2021/04/19 00:34:12;;;;;;;26.23;16.15;;;;;;;11.10;58.29;102308.50;5054098;28;20124;-83
2021/04/19 00:36:39;;;;;;;28.50;15.75;;;;;;;11.11;58.40;102308.50;5054117;28;20017;-83
2021/04/19 00:39:06;;;;;;;26.10;16.05;;;;;;;11.08;58.52;102303.22;5054466;28;20037;-84
2021/04/19 00:41:32;;;;;;;30.05;16.85;;;;;;;11.04;58.76;102303.19;5054061;28;20021;-84
2021/04/19 00:43:59;;;;;;;27.70;14.95;;;;;;;11.02;58.59;102303.19;5054010;28;20025;-84
2021/04/19 00:46:26;;;;;;;28.35;15.68;;;;;;;11.02;58.72;102294.38;5054174;28;20396;-84
2021/04/19 00:48:52;;;;;;;25.45;15.13;;;;;;;10.96;59.01;102301.41;5053835;28;20476;-84
2021/04/19 00:51:19;;;;;;;30.27;16.25;;;;;;;10.94;58.92;102289.94;5054352;28;20032;-83
2021/04/19 00:53:46;;;;;;;28.10;17.00;;;;;;;10.95;58.74;102290.81;5053537;28;20029;-83
2021/04/19 00:56:14;;;;;;;26.65;15.68;;;;;;;10.90;58.92;102293.44;5040196;28;20037;-83
2021/04/19 00:58:42;;;;;;;31.20;16.50;;;;;;;10.92;59.09;102291.69;5053967;28;20036;-83
2021/04/19 01:01:09;;;;;;;28.40;16.27;;;;;;;10.91;59.03;102289.03;5053222;28;20090;-83
2021/04/19 01:03:37;;;;;;;28.10;15.75;;;;;;;10.89;58.91;102280.19;5053748;28;20029;-83
2021/04/19 01:06:05;;;;;;;30.05;17.17;;;;;;;10.87;58.85;102277.53;5053643;28;20427;-83
2021/04/19 01:08:32;;;;;;;32.17;16.88;;;;;;;10.83;59.07;102281.06;5053858;28;20025;-83
2021/04/19 01:10:59;;;;;;;34.25;18.55;;;;;;;10.80;58.84;102276.66;5053457;28;20029;-83
2021/04/19 01:13:26;;;;;;;26.38;15.68;;;;;;;10.80;59.16;102284.63;5053479;28;20027;-83
2021/04/19 01:15:53;;;;;;;32.97;17.58;;;;;;;10.78;59.15;102280.16;5053224;28;20090;-83
2021/04/19 01:18:20;;;;;;;30.95;18.73;;;;;;;10.77;59.30;102279.28;5052976;28;20020;-83
2021/04/19 01:20:49;;;;;;;34.22;18.33;;;;;;;10.77;59.38;102281.06;5053353;28;20440;-84
2021/04/19 01:23:17;;;;;;;27.65;17.65;;;;;;;10.73;59.45;102279.25;5053177;28;20486;-84
2021/04/19 01:25:45;;;;;;;36.15;18.88;;;;;;;10.72;59.48;102281.03;5053139;28;20460;-83
2021/04/19 01:28:12;;;;;;;29.83;17.70;;;;;;;10.71;59.63;102281.06;5053162;28;20357;-83
2021/04/19 01:30:41;;;;;;;30.88;18.55;;;;;;;10.67;59.45;102275.72;5053544;28;20448;-84
2021/04/19 01:33:09;;;;;;;33.33;19.67;;;;;;;10.64;59.71;102280.13;5053403;28;20029;-82
2021/04/19 01:35:36;;;;;;;39.38;21.38;;;;;;;10.63;59.61;102278.34;5052864;28;20044;-84
2021/04/19 01:38:05;;;;;;;34.15;18.55;;;;;;;10.64;59.84;102266.88;5038972;28;20029;-84
2021/04/19 01:40:32;;;;;;;36.45;22.35;;;;;;;10.57;59.88;102267.75;5043667;28;20483;-83
2021/04/19 01:42:59;;;;;;;39.60;22.27;;;;;;;10.56;59.95;102272.16;5038653;28;20025;-83
2021/04/19 01:45:26;;;;;;;39.20;22.27;;;;;;;10.55;60.04;102269.50;5041482;28;20041;-84
2021/04/19 01:47:54;;;;;;;40.58;22.95;;;;;;;10.54;59.83;102263.31;5037398;28;20038;-82
2021/04/19 01:50:25;;;;;;;41.03;21.70;;;;;;;10.53;59.92;102264.22;5036204;28;20075;-84
2021/04/19 01:52:54;;;;;;;41.00;23.27;;;;;;;10.49;60.13;102263.31;5037942;28;20060;-83
2021/04/19 01:55:24;;;;;;;41.13;23.42;;;;;;;10.48;60.25;102268.59;5034342;28;20033;-82
2021/04/19 01:57:54;;;;;;;44.05;24.67;;;;;;;10.44;60.34;102266.81;5041095;28;20052;-83
2021/04/19 02:00:24;;;;;;;46.85;25.65;;;;;;;10.41;60.38;102269.47;5036579;28;20029;-84
2021/04/19 02:06:04;;;;;;;41.58;24.52;;;;;;;10.45;60.60;102264.16;5001882;28;20365;-84
2021/04/19 02:09:02;;;;;;;49.65;27.40;;;;;;;10.40;60.80;102262.41;4994170;28;20049;-84
2021/04/19 02:14:35;;;;;;;50.15;30.42;;;;;;;10.35;60.96;102255.28;5042093;27;1031319;-83
2021/04/19 02:19:53;;;;;;;54.63;29.65;;;;;;;10.23;61.14;102257.91;5039128;27;1370036;-85
2021/04/19 02:22:28;;;;;;;54.63;29.08;;;;;;;10.31;61.23;102261.44;5067752;28;20032;-84
2021/04/19 02:25:06;;;;;;;49.50;28.65;;;;;;;10.27;61.29;102262.31;5047585;28;20022;-84
2021/04/19 02:27:38;;;;;;;47.20;28.63;;;;;;;10.23;60.83;102263.19;5039201;28;20705;-85
2021/04/19 02:30:09;;;;;;;46.83;26.40;;;;;;;10.19;61.37;102269.34;5033146;28;20053;-85
2021/04/19 02:32:39;;;;;;;47.50;29.00;;;;;;;10.17;61.46;102263.16;5034012;28;20088;-84
2021/04/19 02:35:10;;;;;;;51.70;27.48;;;;;;;10.15;61.20;102265.78;5040814;28;20055;-84
2021/04/19 02:37:40;;;;;;;65.07;32.95;;;;;;;10.13;61.36;102267.56;5035731;28;20022;-84
2021/04/19 02:40:09;;;;;;;60.22;31.70;;;;;;;10.11;61.97;102266.66;5036456;28;20033;-85
2021/04/19 02:42:40;;;;;;;58.95;30.73;;;;;;;10.12;61.70;102264.88;5035913;28;20091;-85
2021/04/19 02:45:09;;;;;;;64.05;33.38;;;;;;;10.08;61.85;102268.41;5031613;28;20036;-85
2021/04/19 02:47:37;;;;;;;57.33;32.17;;;;;;;10.02;61.39;102256.91;5035670;28;20101;-84
2021/04/19 02:50:07;;;;;;;55.78;30.40;;;;;;;10.01;61.64;102259.56;5040612;28;20071;-84
2021/04/19 02:52:35;;;;;;;55.45;30.75;;;;;;;9.97;61.63;102253.34;5033320;28;20032;-85
2021/04/19 02:55:04;;;;;;;63.03;35.15;;;;;;;9.95;61.89;102256.88;5037116;28;20030;-85
2021/04/19 02:57:37;;;;;;;64.60;36.05;;;;;;;9.92;62.48;102257.75;5033089;28;20029;-85
2021/04/19 03:00:04;;;;;;;64.60;35.45;;;;;;;9.92;62.20;102255.09;5034340;28;20033;-84
2021/04/19 03:02:32;;;;;;;68.03;35.70;;;;;;;9.92;62.68;102260.38;5036791;28;20095;-85
2021/04/19 03:05:01;;;;;;;74.15;37.53;;;;;;;9.91;62.40;102258.63;5033116;28;20025;-85
2021/04/19 03:07:37;;;;;;;69.15;36.75;;;;;;;9.94;62.28;102261.25;5031360;28;20465;-84
2021/04/19 03:10:11;;;;;;;72.72;39.13;;;;;;;9.84;63.03;102249.75;5033540;28;20104;-85
2021/04/19 03:12:42;;;;;;;74.53;39.00;;;;;;;9.84;63.09;102254.16;5029664;28;20025;-84
2021/04/19 03:15:14;;;;;;;83.68;42.55;;;;;;;9.82;63.03;102248.84;5032244;28;20549;-85
2021/04/19 03:17:42;;;;;;;77.55;41.03;;;;;;;9.79;63.13;102250.59;5031311;28;20030;-85
2021/04/19 03:20:14;;;;;;;74.10;41.83;;;;;;;9.83;63.07;102241.78;5019204;28;20443;-84
2021/04/19 03:22:45;;;;;;;73.47;42.40;;;;;;;9.82;63.31;102251.50;5031063;28;20548;-84
2021/04/19 03:25:13;;;;;;;80.93;40.63;;;;;;;9.79;63.55;102245.31;5031651;28;20255;-83
2021/04/19 03:27:43;;;;;;;76.22;42.67;;;;;;;9.80;63.07;102236.50;5028302;28;20431;-85
2021/04/19 03:30:12;;;;;;;75.60;42.63;;;;;;;9.78;63.47;102239.13;5024461;28;20416;-85
2021/04/19 03:32:48;;;;;;;81.18;43.83;;;;;;;9.78;64.38;102236.50;5019881;28;20376;-85
2021/04/19 03:35:18;;;;;;;79.88;44.38;;;;;;;9.82;63.50;102237.38;5022987;28;20048;-85
2021/04/19 03:37:46;;;;;;;71.55;37.97;;;;;;;9.84;63.11;102238.28;5018627;28;20030;-85
2021/04/19 03:42:57;;;;;;;79.10;43.97;;;;;;;9.82;63.93;102248.84;5070260;27;20405;-82
2021/04/19 03:45:25;;;;;;;74.90;43.05;;;;;;;9.81;63.80;102240.91;5048199;28;20040;-85
2021/04/19 03:47:55;;;;;;;80.38;42.22;;;;;;;9.83;63.55;102237.41;5048543;28;20498;-84
2021/04/19 03:50:24;;;;;;;69.85;37.63;;;;;;;9.85;63.45;102248.00;5046824;28;20026;-85
2021/04/19 03:52:53;;;;;;;75.38;39.13;;;;;;;9.82;63.60;102240.91;5047504;28;20087;-84
2021/04/19 03:55:20;;;;;;;73.35;38.60;;;;;;;9.83;63.59;102244.44;5047679;28;20037;-84
2021/04/19 03:57:49;;;;;;;70.40;38.95;;;;;;;9.83;63.58;102248.00;5047578;28;20112;-85
2021/04/19 04:00:19;;;;;;;83.35;43.05;;;;;;;9.83;63.33;102245.34;5046735;28;20068;-81
2021/04/19 04:02:52;;;;;;;83.13;42.53;;;;;;;9.83;63.53;102241.78;5044726;28;20063;-84
2021/04/19 04:05:21;;;;;;;81.50;40.85;;;;;;;9.79;63.83;102240.88;5043143;28;20040;-84
2021/04/19 04:07:50;;;;;;;68.97;37.25;;;;;;;9.77;63.44;102241.75;5045025;28;20049;-84
2021/04/19 04:10:18;;;;;;;78.93;42.63;;;;;;;9.72;64.30;102239.09;5036320;28;20091;-85
2021/04/19 04:12:44;;;;;;;86.88;40.83;;;;;;;9.67;63.84;102236.41;5046606;28;20040;-85
2021/04/19 04:15:14;;;;;;;74.35;39.42;;;;;;;9.67;63.82;102236.41;5047208;28;20566;-85
2021/04/19 04:17:40;;;;;;;92.20;43.67;;;;;;;9.66;63.93;102239.94;5045766;28;20749;-85
2021/04/19 04:20:07;;;;;;;73.28;41.90;;;;;;;9.67;64.42;102241.72;5046985;28;20029;-85
2021/04/19 04:22:34;;;;;;;82.93;42.88;;;;;;;9.67;64.42;102236.41;5047374;28;20091;-85
2021/04/19 04:25:01;;;;;;;76.18;41.38;;;;;;;9.67;63.91;102232.88;5047026;28;20031;-85
2021/04/19 04:27:28;;;;;;;73.10;39.53;;;;;;;9.66;63.87;102234.66;5048273;28;20075;-84
2021/04/19 04:29:54;;;;;;;77.50;37.88;;;;;;;9.65;64.25;102227.56;5046036;28;20492;-85
2021/04/19 04:32:21;;;;;;;74.65;38.25;;;;;;;9.47;64.97;102231.00;5047495;28;20108;-84
2021/04/19 04:34:47;;;;;;;79.88;41.25;;;;;;;9.48;65.03;102227.50;5045253;28;20047;-84
2021/04/19 04:37:13;;;;;;;75.78;39.22;;;;;;;9.48;65.03;102221.28;5047537;28;20057;-83
2021/04/19 04:39:39;;;;;;;71.35;39.90;;;;;;;9.48;65.45;102229.22;5047534;28;20048;-84
2021/04/19 04:42:12;;;;;;;80.53;41.67;;;;;;;9.53;65.12;102216.91;5045856;28;20384;-83
2021/04/19 04:44:41;;;;;;;79.68;41.58;;;;;;;9.51;65.19;102223.97;5047198;28;20055;-84
2021/04/19 04:47:33;;;;;;;89.40;41.38;;;;;;;9.59;65.58;102216.94;5047452;28;20029;-83
2021/04/19 04:50:08;;;;;;;90.55;42.17;;;;;;;9.54;65.81;102214.31;5045148;28;20116;-84
2021/04/19 04:52:44;;;;;;;74.53;39.35;;;;;;;9.56;65.17;102222.25;5042464;28;20397;-85
2021/04/19 04:55:14;;;;;;;77.10;39.28;;;;;;;9.58;65.57;102224.88;5031897;28;20060;-83
2021/04/19 04:57:45;;;;;;;78.13;37.75;;;;;;;9.59;65.54;102219.59;5031834;28;20033;-84
2021/04/19 05:00:17;;;;;;;78.45;36.92;;;;;;;9.60;65.49;102231.97;5033578;28;20044;-83
2021/04/19 05:02:47;;;;;;;74.00;36.45;;;;;;;9.76;64.53;102224.09;5031864;28;20540;-85
2021/04/19 05:05:16;;;;;;;70.50;37.15;;;;;;;9.81;64.50;102223.25;5032213;28;20090;-84
2021/04/19 05:07:43;;;;;;;75.00;37.97;;;;;;;9.80;64.43;102226.78;5033176;28;20041;-84
2021/04/19 05:10:10;;;;;;;79.20;37.92;;;;;;;9.80;64.80;102226.78;5030728;28;20059;-84
2021/04/19 05:12:38;;;;;;;73.57;37.72;;;;;;;9.84;64.70;102225.03;5032487;28;20026;-85
2021/04/19 05:15:12;;;;;;;63.88;35.53;;;;;;;9.87;64.47;102227.72;5033481;28;20025;-84
2021/04/19 05:17:42;;;;;;;72.10;36.88;;;;;;;9.84;64.45;102228.59;5032526;28;20036;-85
2021/04/19 05:20:11;;;;;;;76.95;38.25;;;;;;;9.87;65.04;102228.59;5032956;28;20052;-85
2021/04/19 05:22:38;;;;;;;66.35;35.55;;;;;;;9.91;64.47;102240.09;5031606;28;20033;-85
2021/04/19 05:25:05;;;;;;;77.13;38.75;;;;;;;9.88;64.89;102237.41;5028405;28;20026;-84
2021/04/19 05:27:33;;;;;;;76.18;37.25;;;;;;;9.92;64.79;102231.25;5032871;28;20034;-84
2021/04/19 05:30:00;;;;;;;70.35;36.80;;;;;;;9.97;64.72;102228.63;5031876;28;20487;-85
2021/04/19 05:32:28;;;;;;;76.82;37.90;;;;;;;9.98;64.79;102228.66;5031797;28;20061;-84
2021/04/19 05:34:56;;;;;;;80.75;38.17;;;;;;;9.99;64.78;102225.13;5031890;28;20040;-84
2021/04/19 05:37:24;;;;;;;78.50;39.65;;;;;;;10.04;64.72;102226.03;5031969;28;20025;-85
2021/04/19 05:39:51;;;;;;;80.70;38.08;;;;;;;10.09;65.09;102222.50;5028500;28;20025;-84
2021/04/19 05:42:20;;;;;;;74.53;38.42;;;;;;;10.14;65.33;102223.41;5030831;28;20052;-83
2021/04/19 05:44:47;;;;;;;68.70;36.60;;;;;;;10.13;65.08;102219.88;5026740;28;20520;-84
2021/04/19 05:47:13;;;;;;;87.32;41.55;;;;;;;10.17;65.66;102216.38;5027335;28;20037;-84
2021/04/19 05:49:41;;;;;;;78.50;37.95;;;;;;;10.29;65.12;102222.56;5027828;28;20084;-85
2021/04/19 05:52:10;;;;;;;76.22;38.05;;;;;;;10.33;65.05;102219.03;5033304;28;20041;-85
2021/04/19 05:54:39;;;;;;;79.20;36.00;;;;;;;10.35;64.89;102225.25;5032927;28;20523;-83
2021/04/19 06:02:41;;;;;;;80.57;37.42;;;;;;;10.43;64.89;102238.53;5071334;27;20424;-84
2021/04/19 06:05:16;;;;;;;67.10;35.72;;;;;;;10.43;64.96;102227.94;5058445;28;20052;-84
2021/04/19 06:07:47;;;;;;;69.78;34.35;;;;;;;10.44;64.52;102230.63;5039366;28;20037;-84
2021/04/19 06:10:21;;;;;;;69.55;34.40;;;;;;;10.47;64.57;102232.41;5032382;28;20029;-83
2021/04/19 06:12:51;;;;;;;65.93;32.67;;;;;;;10.42;64.93;102232.38;5032426;28;20068;-84
2021/04/19 06:15:21;;;;;;;71.50;33.83;;;;;;;10.36;64.56;102222.63;5029198;28;20034;-84
2021/04/19 06:17:49;;;;;;;68.65;33.80;;;;;;;10.40;64.42;102223.53;5040595;28;20052;-84
2021/04/19 06:20:18;;;;;;;65.03;33.45;;;;;;;10.38;64.30;102219.09;5041188;28;20523;-85
2021/04/19 06:22:50;;;;;;;65.18;31.05;;;;;;;10.38;64.38;102225.31;5035844;28;20404;-84
2021/04/19 06:25:19;;;;;;;61.40;31.75;;;;;;;10.42;64.32;102227.06;5030395;28;20022;-84
2021/04/19 06:27:46;;;;;;;66.32;29.13;;;;;;;10.41;64.48;102225.31;5041824;28;20108;-85
2021/04/19 06:30:18;;;;;;;74.10;34.67;;;;;;;10.43;64.65;102226.19;5031490;28;20393;-84
2021/04/19 06:32:47;;;;;;;66.75;34.00;;;;;;;10.52;64.57;102222.69;5038450;28;20033;-85
2021/04/19 06:35:15;;;;;;;61.10;32.97;;;;;;;10.57;65.00;102226.22;5029998;28;20022;-85
2021/04/19 06:37:42;;;;;;;64.68;33.47;;;;;;;10.59;65.26;102229.78;5042860;28;20026;-85
2021/04/19 06:40:09;;;;;;;64.97;33.70;;;;;;;10.75;64.92;102224.50;5041143;28;20025;-84
2021/04/19 06:42:36;;;;;;;64.72;32.22;;;;;;;10.83;64.93;102222.75;5041641;28;20033;-86
2021/04/19 06:45:04;;;;;;;61.03;32.22;;;;;;;10.92;64.96;102222.75;5037346;28;20493;-84
2021/04/19 06:47:34;;;;;;;54.08;30.70;;;;;;;10.99;64.76;102229.81;5035933;28;20460;-85
2021/04/19 06:50:03;;;;;;;69.88;33.65;;;;;;;11.08;64.63;102223.63;5040849;28;20086;-81
2021/04/19 06:52:32;;;;;;;59.20;31.10;;;;;;;11.24;64.49;102224.53;5042397;28;20105;-84
2021/04/19 06:54:59;;;;;;;53.70;29.90;;;;;;;11.33;64.45;102213.88;5040906;28;20035;-82
2021/04/19 06:57:32;;;;;;;58.88;29.80;;;;;;;11.45;64.28;102212.09;5038826;28;20098;-83
2021/04/19 06:59:59;;;;;;;57.28;29.50;;;;;;;11.56;64.08;102225.34;5038611;28;20485;-82
2021/04/19 07:02:28;;;;;;;61.65;28.80;;;;;;;11.66;64.22;102221.78;5029761;28;20029;-82
2021/04/19 07:04:58;;;;;;;52.15;28.25;;;;;;;11.77;63.84;102208.50;5027399;28;20485;-83
2021/04/19 07:07:30;;;;;;;50.58;27.63;;;;;;;11.87;63.79;102212.00;5023780;28;20036;-84
2021/04/19 07:09:59;;;;;;;45.25;24.98;;;;;;;11.91;63.55;102206.69;5027850;28;20033;-84
2021/04/19 07:12:26;;;;;;;53.88;26.48;;;;;;;12.02;63.45;102200.47;5023426;28;20030;-83
2021/04/19 07:14:54;;;;;;;44.83;25.77;;;;;;;12.00;64.31;102215.53;5017294;28;20026;-85
2021/04/19 07:17:21;;;;;;;47.80;26.88;;;;;;;12.08;64.13;102211.06;5018169;28;20060;-84
2021/04/19 07:19:48;;;;;;;49.53;26.70;;;;;;;12.17;63.83;102208.38;5023046;28;20065;-84
2021/04/19 07:22:15;;;;;;;50.60;28.25;;;;;;;12.22;63.32;102205.69;5015081;28;20117;-85
2021/04/19 07:24:42;;;;;;;43.72;25.23;;;;;;;12.32;62.69;102210.06;5017867;28;20034;-84
2021/04/19 07:27:12;;;;;;;39.28;24.63;;;;;;;12.40;63.26;102210.00;5022583;28;20547;-84
2021/04/19 07:29:40;;;;;;;44.83;25.13;;;;;;;12.48;62.83;102212.66;5019800;28;20095;-84
2021/04/19 07:32:07;;;;;;;42.65;24.45;;;;;;;12.50;62.84;102206.44;5018513;28;20123;-84
2021/04/19 07:34:33;;;;;;;36.25;22.15;;;;;;;12.52;62.02;102203.75;5014669;28;20058;-84
2021/04/19 07:37:02;;;;;;;39.67;23.52;;;;;;;12.53;62.10;102201.06;5020595;28;20503;-85
2021/04/19 07:39:31;;;;;;;44.08;23.98;;;;;;;12.53;62.45;102205.53;5018050;28;20040;-84
2021/04/19 07:42:01;;;;;;;38.80;24.58;;;;;;;12.51;61.70;102204.63;5020471;28;20045;-85
2021/04/19 07:44:36;;;;;;;45.60;26.70;;;;;;;12.56;62.06;102203.72;5022218;28;20037;-84
2021/04/19 07:47:40;;;;;;;46.60;25.73;;;;;;;12.64;62.13;102200.16;5020212;28;20060;-83
2021/04/19 07:50:23;;;;;;;38.03;23.90;;;;;;;12.68;62.39;102204.53;5013043;28;20029;-84
2021/04/19 07:52:51;;;;;;;;;;;;;;;12.86;61.95;102203.50;5017560;28;20030;-83
2021/04/19 07:55:22;;;;;;;46.60;25.77;;;;;;;12.75;62.62;102200.94;5023327;28;19920;-84
2021/04/19 07:57:49;;;;;;;41.90;25.58;;;;;;;12.78;62.55;102201.81;5023084;28;20037;-83
2021/04/19 08:00:27;;;;;;;41.53;23.42;;;;;;;12.90;61.98;102200.81;5020906;28;20067;-84
2021/04/19 08:03:12;;;;;;;40.70;25.33;;;;;;;13.05;62.25;102201.59;5026643;28;20040;-83
2021/04/19 08:05:51;;;;;;;43.28;23.67;;;;;;;13.04;62.38;102203.34;5018418;28;20472;-86
2021/04/19 08:08:27;;;;;;;39.40;24.20;;;;;;;13.17;62.25;102205.91;5020435;28;20114;-83
2021/04/19 08:11:06;;;;;;;37.35;23.40;;;;;;;13.35;61.59;102203.09;5015146;28;20765;-81
2021/04/19 08:13:32;;;;;;;37.53;22.40;;;;;;;13.31;61.78;102203.13;5012463;28;20026;-82
2021/04/19 08:19:01;;;;;;;36.05;23.98;;;;;;;13.59;61.53;102207.31;5071771;28;20440;-82
2021/04/19 08:21:28;;;;;;;42.50;22.88;;;;;;;13.66;61.35;102202.81;5041309;28;20048;-79
2021/04/19 08:23:55;;;;;;;38.22;22.80;;;;;;;13.79;61.57;102200.88;5040107;28;20033;-80
2021/04/19 08:26:21;;;;;;;42.60;25.98;;;;;;;13.95;60.93;102203.38;5048251;28;20025;-80
2021/04/19 08:28:49;;;;;;;34.22;21.67;;;;;;;14.08;61.29;102204.94;5049198;28;20044;-81
2021/04/19 08:31:17;;;;;;;42.53;23.65;;;;;;;14.23;60.88;102199.44;5048769;28;20025;-82
2021/04/19 08:33:44;;;;;;;34.40;22.65;;;;;;;14.37;60.17;102199.25;5046654;28;20025;-80
2021/04/19 08:36:13;;;;;;;33.75;21.80;;;;;;;14.53;60.18;102201.69;5047764;28;20033;-80
2021/04/19 08:38:41;;;;;;;35.45;22.38;;;;;;;14.60;60.31;102191.81;5049459;28;20047;-80
2021/04/19 08:41:10;;;;;;;41.30;24.17;;;;;;;14.66;59.60;102194.41;5048370;28;20032;-79
2021/04/19 08:43:39;;;;;;;32.20;22.30;;;;;;;14.84;59.12;102196.78;5048505;28;20396;-81
2021/04/19 08:46:06;;;;;;;31.27;21.98;;;;;;;14.80;59.42;102195.06;5040299;28;20374;-80
2021/04/19 08:48:32;;;;;;;33.33;22.05;;;;;;;14.98;58.75;102193.03;5048918;28;20056;-81
2021/04/19 08:51:03;;;;;;;30.48;20.98;;;;;;;15.12;58.22;102196.31;5048085;28;20041;-82
2021/04/19 08:53:30;;;;;;;33.50;21.83;;;;;;;15.27;58.25;102194.31;5048178;28;20025;-80
2021/04/19 08:55:56;;;;;;;30.02;21.20;;;;;;;15.28;57.77;102190.72;5047209;28;20034;-82
2021/04/19 08:58:24;;;;;;;32.20;22.13;;;;;;;15.23;57.68;102196.13;5045124;28;20045;-83
2021/04/19 09:00:53;;;;;;;34.92;21.83;;;;;;;15.32;57.43;102187.94;5048381;28;20384;-81
2021/04/19 09:03:20;;;;;;;31.77;21.77;;;;;;;15.30;57.05;102194.22;5049203;28;20021;-83
2021/04/19 09:05:48;;;;;;;29.17;20.50;;;;;;;15.35;57.17;102197.69;5047006;28;20388;-84
2021/04/19 09:08:16;;;;;;;35.45;21.98;;;;;;;15.50;57.00;102191.19;5048941;28;20029;-81
2021/04/19 09:11:06;;;;;;;36.53;23.15;;;;;;;15.65;56.63;102192.69;5045136;28;20049;-81
2021/04/19 09:13:36;;;;;;;30.48;22.50;;;;;;;15.70;56.82;102190.78;5048924;28;20063;-82
2021/04/19 09:19:00;;;;;;;33.65;21.50;;;;;;;15.92;56.63;102198.41;5086052;28;20435;-80
2021/04/19 09:21:49;;;;;;;31.85;21.83;;;;;;;15.96;55.71;102194.75;5064504;28;20420;-81
2021/04/19 09:24:17;;;;;;;30.63;21.60;;;;;;;16.05;56.42;102189.25;5065719;28;20036;-81
2021/04/19 09:27:01;;;;;;;33.97;23.83;;;;;;;16.31;56.12;102182.41;5047688;28;20118;-82
2021/04/19 09:32:20;;;;;;;33.83;22.02;;;;;;;16.62;54.82;102187.94;5078495;28;20424;-81
2021/04/19 09:40:24;;;;;;;31.67;22.00;;;;;;;16.91;54.45;102190.81;5085668;27;20396;-82
2021/04/19 09:51:37;;;;;;;34.72;21.77;;;;;;;17.55;51.34;102177.53;5115610;27;20358;-80
2021/04/19 09:54:12;;;;;;;29.50;22.35;;;;;;;17.57;51.88;102181.06;5096705;28;20411;-80
2021/04/19 09:59:27;;;;;;;29.17;21.58;;;;;;;17.49;51.87;102176.84;5070396;27;20390;-83
2021/04/19 10:01:55;;;;;;;26.60;21.50;;;;;;;17.48;52.13;102167.06;5064683;28;20056;-81
2021/04/19 10:04:22;;;;;;;33.03;22.13;;;;;;;17.51;52.31;102170.53;5062176;28;20059;-80
2021/04/19 10:06:58;;;;;;;31.35;21.52;;;;;;;17.60;52.23;102169.38;5045861;28;20040;-81
2021/04/19 10:09:26;;;;;;;33.38;20.83;;;;;;;17.64;52.05;102165.69;5049069;28;20033;-80
2021/04/19 10:11:59;;;;;;;27.88;21.80;;;;;;;17.63;51.64;102162.13;5035593;28;20026;-80
2021/04/19 10:14:27;;;;;;;31.77;21.58;;;;;;;17.86;51.99;102157.03;5048190;28;20034;-79
2021/04/19 10:16:53;;;;;;;24.10;19.40;;;;;;;17.87;51.74;102156.09;5032662;28;20025;-80
2021/04/19 10:22:09;;;;;;;29.88;18.63;;;;;;;18.10;50.63;102158.97;5073524;28;20429;-79
2021/04/19 10:24:49;;;;;;;28.13;17.95;;;;;;;18.10;50.71;102158.97;5057985;28;20037;-79
2021/04/19 10:27:24;;;;;;;27.48;19.25;;;;;;;17.99;50.39;102152.22;5067416;28;20028;-80
2021/04/19 10:29:52;;;;;;;23.80;18.20;;;;;;;18.07;50.11;102158.22;5052296;28;20029;-81
2021/04/19 10:32:27;;;;;;;26.40;18.85;;;;;;;18.22;49.95;102156.88;5051560;28;20024;-78
2021/04/19 10:34:54;;;;;;;24.40;17.05;;;;;;;18.23;49.91;102155.91;5049543;28;20538;-80
2021/04/19 10:37:20;;;;;;;24.85;16.85;;;;;;;18.27;49.45;102153.09;5050489;28;20484;-81
2021/04/19 10:39:47;;;;;;;23.90;16.75;;;;;;;18.37;49.53;102161.75;5056879;28;20502;-81
2021/04/19 10:42:21;;;;;;;25.13;16.70;;;;;;;18.43;49.50;102155.31;5058670;28;20411;-80
2021/04/19 10:44:48;;;;;;;19.95;15.30;;;;;;;18.56;48.91;102161.16;5057381;28;20036;-78
2021/04/19 10:47:25;;;;;;;22.55;16.33;;;;;;;18.62;48.61;102154.69;5048345;28;20415;-77
2021/04/19 10:49:51;;;;;;;27.90;18.20;;;;;;;18.63;49.05;102159.13;5059457;28;20119;-81
2021/04/19 10:52:17;;;;;;;22.27;17.42;;;;;;;18.68;49.42;102158.06;5056024;28;20055;-78
2021/04/19 10:54:46;;;;;;;23.20;16.25;;;;;;;18.94;48.55;102150.97;5064146;28;20071;-80
2021/04/19 10:57:29;;;;;;;16.70;13.55;;;;;;;19.11;47.25;102157.56;5054092;28;20104;-81
2021/04/19 10:59:57;;;;;;;;;;;;;;;19.13;47.11;102159.28;5050284;28;20472;-83
2021/04/19 11:02:25;;;;;;;22.98;16.83;;;;;;;18.97;48.18;102153.53;5048888;28;20035;-82
2021/04/19 11:04:53;;;;;;;20.40;15.30;;;;;;;18.97;48.21;102156.22;5057302;28;20036;-82
2021/04/19 11:07:24;;;;;;;18.13;14.60;;;;;;;19.13;47.61;102150.31;5057068;28;20033;-82
2021/04/19 11:15:41;;;;;;;15.25;12.77;;;;;;;19.76;46.62;102136.41;5062814;27;20523;-81
2021/04/19 11:18:28;;;;;;;14.63;12.15;;;;;;;19.90;45.76;102134.09;5048131;28;20033;-82
2021/04/19 11:20:56;;;;;;;15.40;12.10;;;;;;;19.96;46.26;102139.25;5044186;28;20040;-81
2021/04/19 11:23:28;;;;;;;15.93;12.23;;;;;;;20.09;46.25;102141.41;5050049;28;20083;-85
2021/04/19 11:25:59;;;;;;;15.07;11.38;;;;;;;20.15;46.36;102146.56;5048072;28;20025;-84
2021/04/19 11:28:31;;;;;;;13.10;10.45;;;;;;;20.12;45.76;102144.88;5053261;28;20488;-82
2021/04/19 11:31:09;;;;;;;13.57;10.55;;;;;;;20.04;45.65;102145.19;5047963;28;20037;-82
2021/04/19 11:33:36;;;;;;;12.35;10.65;;;;;;;20.08;45.37;102145.06;5046872;28;20157;-83
2021/04/19 11:36:06;;;;;;;12.13;10.52;;;;;;;20.25;44.96;102142.59;5050530;28;20071;-83
2021/04/19 11:38:36;;;;;;;15.23;11.43;;;;;;;20.33;44.06;102144.97;5040849;28;20543;-83
2021/04/19 11:41:14;;;;;;;14.88;10.00;;;;;;;20.39;44.19;102146.50;5040371;28;20030;-82
2021/04/19 11:43:50;;;;;;;13.38;9.90;;;;;;;20.63;43.65;102133.88;5041081;28;20369;-83
2021/04/19 11:46:18;;;;;;;13.23;10.55;;;;;;;20.62;43.34;102135.69;5044081;28;20087;-83
2021/04/19 11:48:47;;;;;;;11.20;8.98;;;;;;;20.63;42.86;102140.13;5047025;28;20083;-82
2021/04/19 11:51:16;;;;;;;10.38;7.88;;;;;;;20.58;42.60;102139.44;5042222;28;20029;-82
2021/04/19 11:53:45;;;;;;;8.95;7.05;;;;;;;20.58;42.44;102138.56;5040982;28;20400;-82
2021/04/19 11:56:12;;;;;;;10.27;7.47;;;;;;;20.61;41.81;102131.25;5039402;28;20448;-82
2021/04/19 11:58:41;;;;;;;9.32;7.60;;;;;;;20.46;41.80;102134.56;5042945;28;20038;-84
2021/04/19 12:01:09;;;;;;;9.48;7.93;;;;;;;20.35;42.27;102133.19;5032749;28;20488;-82
2021/04/19 12:03:37;;;;;;;9.75;7.65;;;;;;;20.29;42.07;102130.75;5030287;28;20040;-83
2021/04/19 12:06:04;;;;;;;8.35;7.20;;;;;;;20.28;42.21;102139.75;5037042;28;20071;-82
2021/04/19 12:08:30;;;;;;;7.90;6.90;;;;;;;20.22;41.96;102142.69;5043296;28;20037;-82
2021/04/19 12:10:56;;;;;;;8.70;6.97;;;;;;;20.20;42.16;102133.81;5044104;28;20036;-82
2021/04/19 12:13:22;;;;;;;9.63;7.50;;;;;;;20.09;42.19;102136.03;5048096;28;20034;-83